Huvudsida
METAR-TAF:

METAR-TAF

Flygplatser :

Forūdgāh-e Lāmerd

Lāmerd, Iran

latitud: 27-22-22N, longitud: 53-11-20E, höjd: 408 m

Aktuellt väderrapport

Denna rapport gjordes för 1 timme och 11 minuter sedan, klockan 05:00 UTC
Stilla vind
Temperatur 17°C
Fuktighet 55%
Tryck 1021 hPa
Sikt 10 km eller mer
Få moln på en höjd av 4000 ft

METAR: OISR 220500Z 00000KT 9999 FEW040 17/08 Q1021 A3016 NOSIG

Tid: 09:41 (06:11 UTC)


TAF: saknas

Aktuella väderrapporter och prognoser från 4000 flygplatser (METAR- och TAF-rapporter).

De tillgängliga stationerna syns som gula och röda prickar på kartan.

För musen över prickarna för att se namnen på stationerna.

Klicka sedan för att få väderrapporter och prognoser.

För att ändra kartan: Klicka på de gröna knapparna med ett svart kors på för att zooma in; den gröna knappen med ett streck på för att zooma ut; eller på de gröna pilarna för angränsande kartor.


METAR-TAF: